createdAt,value
2018-06-08T00:01:01.958Z,19.90
2018-06-08T00:03:31.843Z,19.80
2018-06-08T00:06:01.165Z,19.70
2018-06-08T00:08:30.504Z,19.70
2018-06-08T00:10:59.800Z,19.60
2018-06-08T00:13:29.121Z,19.60
2018-06-08T00:15:58.381Z,19.50
2018-06-08T00:18:27.692Z,19.40
2018-06-08T00:20:57.966Z,19.40
2018-06-08T00:23:27.244Z,19.30
2018-06-08T00:25:56.610Z,19.30
2018-06-08T00:28:29.288Z,19.20
2018-06-08T00:31:03.006Z,19.20
2018-06-08T00:33:32.731Z,19.10
2018-06-08T00:36:02.061Z,19.00
2018-06-08T00:38:33.268Z,19.00
2018-06-08T00:41:07.037Z,18.90
2018-06-08T00:43:40.084Z,18.80
2018-06-08T00:46:13.303Z,18.80
2018-06-08T00:48:46.036Z,18.70
2018-06-08T00:51:15.523Z,18.60
2018-06-08T00:53:47.147Z,18.60
2018-06-08T00:56:29.558Z,18.50
2018-06-08T00:59:01.928Z,18.40
2018-06-08T01:01:36.678Z,18.40
2018-06-08T01:04:07.210Z,18.30
2018-06-08T01:06:37.763Z,18.30
2018-06-08T01:09:09.978Z,18.20
2018-06-08T01:11:40.695Z,18.20
2018-06-08T01:14:11.424Z,18.10
2018-06-08T01:16:43.574Z,18.00
2018-06-08T01:19:14.961Z,18.00
2018-06-08T01:24:23.367Z,17.90
2018-06-08T01:26:53.498Z,17.90
2018-06-08T01:29:24.088Z,17.80
2018-06-08T01:31:57.989Z,17.80
2018-06-08T01:34:30.131Z,17.70
2018-06-08T01:37:02.207Z,17.70
2018-06-08T01:39:34.028Z,17.70
2018-06-08T01:42:05.390Z,17.60
2018-06-08T01:44:40.926Z,17.60
2018-06-08T01:49:50.935Z,17.50
2018-06-08T01:52:26.994Z,17.40
2018-06-08T01:54:58.115Z,17.30
2018-06-08T01:57:28.734Z,17.20
2018-06-08T01:59:59.508Z,17.20
2018-06-08T02:02:32.141Z,17.20
2018-06-08T02:05:05.929Z,17.10
2018-06-08T02:07:36.967Z,17.10
2018-06-08T02:10:08.166Z,17.10
2018-06-08T02:12:39.783Z,17.10
2018-06-08T02:15:10.329Z,17.10
2018-06-08T02:17:39.662Z,17.00
2018-06-08T02:20:09.135Z,17.00
2018-06-08T02:22:38.355Z,16.90
2018-06-08T02:25:07.674Z,16.90
2018-06-08T02:27:36.923Z,16.80
2018-06-08T02:30:06.264Z,16.80
2018-06-08T02:32:35.625Z,16.80
2018-06-08T02:35:05.123Z,16.80
2018-06-08T02:37:34.383Z,16.70
2018-06-08T02:40:03.856Z,16.70
2018-06-08T02:42:33.164Z,16.70
2018-06-08T02:45:02.481Z,16.70
2018-06-08T02:47:31.787Z,16.60
2018-06-08T02:50:01.046Z,16.60
2018-06-08T02:52:30.341Z,16.60
2018-06-08T02:54:59.694Z,16.50
2018-06-08T02:57:29.058Z,16.50
2018-06-08T02:59:58.372Z,16.50
2018-06-08T03:02:27.700Z,16.40
2018-06-08T03:04:56.964Z,16.40
2018-06-08T03:07:26.265Z,16.40
2018-06-08T03:09:55.832Z,16.40
2018-06-08T03:12:25.119Z,16.30
2018-06-08T03:14:54.469Z,16.30
2018-06-08T03:17:23.799Z,16.30
2018-06-08T03:19:53.202Z,16.30
2018-06-08T03:22:22.513Z,16.40
2018-06-08T03:24:51.893Z,16.40
2018-06-08T03:27:21.355Z,16.40
2018-06-08T03:29:50.679Z,16.40
2018-06-08T03:32:20.054Z,16.40
2018-06-08T03:34:49.318Z,16.50
2018-06-08T03:37:18.701Z,16.50
2018-06-08T03:39:48.044Z,16.50
2018-06-08T03:42:17.945Z,16.50
2018-06-08T03:44:47.358Z,16.50
2018-06-08T03:47:16.738Z,16.50
2018-06-08T03:52:15.019Z,16.60
2018-06-08T03:54:46.306Z,16.60
2018-06-08T03:57:16.629Z,16.70
2018-06-08T03:59:55.949Z,16.70
2018-06-08T04:02:27.374Z,16.80
2018-06-08T04:05:18.137Z,16.80
2018-06-08T04:07:47.567Z,16.90
2018-06-08T04:10:19.779Z,17.00
2018-06-08T04:12:50.202Z,17.10
2018-06-08T04:15:25.405Z,17.30
2018-06-08T04:18:06.936Z,17.40
2018-06-08T04:20:40.740Z,17.50
2018-06-08T04:23:11.112Z,17.60
2018-06-08T04:25:40.982Z,17.70
2018-06-08T04:28:14.994Z,17.90
2018-06-08T04:36:40.534Z,18.20
2018-06-08T04:39:17.832Z,18.30
2018-06-08T04:41:59.950Z,18.40
2018-06-08T04:44:58.266Z,18.50
2018-06-08T04:47:28.597Z,18.60
2018-06-08T04:52:26.806Z,18.80
2018-06-08T04:54:56.224Z,18.90
2018-06-08T04:57:25.589Z,19.00
2018-06-08T04:59:54.883Z,19.20
2018-06-08T05:02:24.333Z,19.30
2018-06-08T05:04:53.739Z,19.40
2018-06-08T05:07:37.793Z,19.60
2018-06-08T05:10:09.263Z,19.80
2018-06-08T05:12:40.110Z,20.00
2018-06-08T05:15:10.197Z,20.20
2018-06-08T05:17:39.553Z,20.40
2018-06-08T05:20:08.916Z,20.70
2018-06-08T05:22:38.196Z,21.10
2018-06-08T05:25:07.438Z,21.60
2018-06-08T05:27:36.779Z,22.10
2018-06-08T05:30:13.382Z,22.60
2018-06-08T05:32:42.645Z,22.70
2018-06-08T05:35:11.929Z,23.00
2018-06-08T05:37:41.209Z,23.30
2018-06-08T05:40:10.554Z,23.70
2018-06-08T05:42:39.928Z,24.30
2018-06-08T05:45:09.792Z,24.70
2018-06-08T05:47:39.642Z,24.90
2018-06-08T05:50:09.642Z,24.70
2018-06-08T05:52:39.255Z,24.50
2018-06-08T05:55:11.112Z,24.30
2018-06-08T05:57:42.120Z,24.40
2018-06-08T06:00:15.209Z,24.80
2018-06-08T06:02:47.739Z,25.20
2018-06-08T06:05:22.367Z,25.00
2018-06-08T06:07:56.326Z,25.30
2018-06-08T06:10:25.820Z,25.30
2018-06-08T06:13:06.128Z,25.00
2018-06-08T06:15:52.362Z,24.80
2018-06-08T06:18:29.459Z,24.50
2018-06-08T06:20:58.888Z,24.40
2018-06-08T06:23:28.134Z,24.60
2018-06-08T06:25:57.463Z,24.70
2018-06-08T06:28:27.416Z,25.20
2018-06-08T06:31:07.251Z,25.40
2018-06-08T06:33:48.533Z,25.20
2018-06-08T06:36:20.941Z,25.10
2018-06-08T06:38:57.862Z,25.10
2018-06-08T06:41:29.457Z,25.80
2018-06-08T06:43:59.766Z,27.20
2018-06-08T06:46:29.483Z,28.50
2018-06-08T06:48:59.398Z,29.30
2018-06-08T06:51:28.930Z,29.90
2018-06-08T06:53:58.737Z,30.50
2018-06-08T06:56:28.600Z,31.10
2018-06-08T06:59:05.404Z,31.40
2018-06-08T07:01:37.562Z,31.20
2018-06-08T07:04:49.756Z,30.70
2018-06-08T07:07:25.563Z,30.70
2018-06-08T07:10:02.019Z,30.70
2018-06-08T07:12:50.133Z,30.30
2018-06-08T07:15:28.284Z,29.80
2018-06-08T07:18:09.386Z,29.50
2018-06-08T07:23:08.063Z,30.70
2018-06-08T07:25:37.611Z,32.30
2018-06-08T07:28:07.146Z,33.90
2018-06-08T07:30:36.510Z,35.30
2018-06-08T07:33:05.905Z,36.40
2018-06-08T07:35:35.254Z,37.30
2018-06-08T07:38:04.612Z,38.10
2018-06-08T07:43:02.891Z,39.30
2018-06-08T07:45:32.304Z,39.70
2018-06-08T07:50:30.559Z,40.90
2018-06-08T07:52:59.932Z,41.40
2018-06-08T07:55:29.279Z,41.60
2018-06-08T07:57:58.784Z,42.00
2018-06-08T08:00:28.270Z,42.40
2018-06-08T08:02:57.612Z,42.70
2018-06-08T08:05:26.967Z,42.90
2018-06-08T08:10:25.272Z,43.20
2018-06-08T08:12:54.612Z,43.70
2018-06-08T08:15:23.930Z,44.10
2018-06-08T08:17:56.924Z,44.10
2018-06-08T08:20:26.427Z,44.10
2018-06-08T08:22:55.787Z,44.10
2018-06-08T08:25:25.174Z,44.70
2018-06-08T08:27:54.500Z,45.00
2018-06-08T08:30:24.133Z,45.30
2018-06-08T08:32:53.559Z,45.60
2018-06-08T08:35:22.827Z,46.10
2018-06-08T08:37:52.209Z,46.50
2018-06-08T08:40:21.574Z,46.80
2018-06-08T08:42:50.944Z,47.20
2018-06-08T08:45:20.310Z,47.60
2018-06-08T08:47:49.784Z,47.80
2018-06-08T08:50:19.161Z,47.90
2018-06-08T08:52:48.475Z,48.00
2018-06-08T08:55:17.857Z,48.10
2018-06-08T08:57:47.182Z,48.40
2018-06-08T09:00:16.537Z,48.60
2018-06-08T09:02:45.861Z,49.00
2018-06-08T09:05:15.277Z,49.00
2018-06-08T09:07:44.830Z,49.20
2018-06-08T09:10:14.211Z,49.60
2018-06-08T09:12:43.618Z,50.10
2018-06-08T09:15:12.933Z,50.30
2018-06-08T09:17:42.254Z,49.90
2018-06-08T09:20:11.614Z,49.40
2018-06-08T09:22:40.832Z,49.00
2018-06-08T09:25:10.273Z,48.50
2018-06-08T09:27:39.624Z,48.70
2018-06-08T09:30:09.333Z,49.20
2018-06-08T09:32:38.726Z,49.90
2018-06-08T09:35:08.231Z,50.20
2018-06-08T09:37:37.693Z,50.10
2018-06-08T09:40:07.199Z,50.00
2018-06-08T09:42:36.526Z,50.00
2018-06-08T09:45:05.864Z,49.30
2018-06-08T09:47:35.314Z,48.00
2018-06-08T09:50:04.779Z,47.30
2018-06-08T09:52:34.302Z,47.10
2018-06-08T09:55:04.497Z,46.90
2018-06-08T09:57:34.976Z,46.60
2018-06-08T10:00:20.759Z,46.50
2018-06-08T10:02:53.613Z,46.40
2018-06-08T10:05:42.783Z,46.10
2018-06-08T10:11:32.399Z,46.00
2018-06-08T10:14:03.033Z,46.40
2018-06-08T10:16:32.564Z,47.20
2018-06-08T10:19:01.866Z,47.10
2018-06-08T10:21:31.201Z,47.10
2018-06-08T10:24:01.063Z,47.10
2018-06-08T10:26:36.916Z,47.30
2018-06-08T10:29:08.439Z,46.80
2018-06-08T10:31:46.303Z,46.50
2018-06-08T10:37:15.669Z,46.80
2018-06-08T10:39:51.103Z,47.70
2018-06-08T10:43:05.569Z,48.40
2018-06-08T10:52:43.043Z,48.90
2018-06-08T10:55:14.925Z,47.20
2018-06-08T10:57:46.487Z,44.70
2018-06-08T11:00:18.049Z,43.30
2018-06-08T11:02:57.577Z,42.50
2018-06-08T11:06:34.449Z,41.50
2018-06-08T11:09:08.598Z,40.80
2018-06-08T11:11:46.043Z,40.10
2018-06-08T11:14:18.212Z,40.10
2018-06-08T11:16:51.098Z,41.00
2018-06-08T11:19:21.597Z,42.00
2018-06-08T11:21:54.572Z,42.60
2018-06-08T11:24:32.554Z,43.20
2018-06-08T11:27:04.720Z,43.80
2018-06-08T11:29:35.968Z,44.10
2018-06-08T11:32:05.612Z,45.00
2018-06-08T11:34:36.723Z,45.70
2018-06-08T11:37:18.943Z,46.00
2018-06-08T11:39:48.860Z,46.50
2018-06-08T11:42:19.598Z,46.90
2018-06-08T11:47:23.356Z,46.20
2018-06-08T11:49:59.949Z,45.60
2018-06-08T11:52:44.442Z,45.40
2018-06-08T11:57:57.168Z,45.00
2018-06-08T12:00:30.690Z,43.90
2018-06-08T12:03:00.414Z,42.40
2018-06-08T12:08:00.039Z,39.30
2018-06-08T12:10:33.857Z,38.60
2018-06-08T12:13:15.815Z,38.70
2018-06-08T12:15:47.828Z,39.20
2018-06-08T12:18:23.548Z,39.10
2018-06-08T12:20:54.012Z,39.00
2018-06-08T12:23:23.411Z,39.20
2018-06-08T12:25:53.818Z,39.70
2018-06-08T12:28:43.576Z,40.30
2018-06-08T12:31:15.077Z,40.80
2018-06-08T12:33:49.433Z,41.00
2018-06-08T12:39:48.140Z,41.20
2018-06-08T12:42:34.249Z,41.30
2018-06-08T12:45:03.839Z,41.30
2018-06-08T12:47:42.584Z,40.80
2018-06-08T12:50:14.526Z,40.30
2018-06-08T12:52:51.266Z,39.90
2018-06-08T12:55:30.026Z,39.60
2018-06-08T12:58:04.716Z,39.60
2018-06-08T13:01:13.836Z,40.20
2018-06-08T13:03:43.236Z,40.80
2018-06-08T13:06:16.845Z,41.60
2018-06-08T13:08:49.046Z,42.00
2018-06-08T13:11:18.559Z,41.70
2018-06-08T13:13:47.959Z,41.30
2018-06-08T13:16:17.265Z,41.10
2018-06-08T13:18:46.698Z,41.00
2018-06-08T13:21:15.997Z,40.80
2018-06-08T13:23:45.352Z,39.90
2018-06-08T13:26:14.556Z,39.20
2018-06-08T13:28:43.957Z,38.60
2018-06-08T13:31:13.181Z,38.00
2018-06-08T13:33:42.697Z,37.50
2018-06-08T13:36:12.501Z,37.50
2018-06-08T13:38:42.119Z,38.30
2018-06-08T13:41:11.411Z,39.10
2018-06-08T13:43:40.902Z,39.70
2018-06-08T13:46:23.064Z,39.90
2018-06-08T13:48:54.516Z,39.70
2018-06-08T13:51:24.008Z,39.50
2018-06-08T13:53:53.486Z,39.40
2018-06-08T13:56:23.395Z,39.80
2018-06-08T13:58:56.918Z,40.40
2018-06-08T14:01:26.691Z,40.70
2018-06-08T14:03:56.411Z,40.80
2018-06-08T14:06:25.752Z,40.80
2018-06-08T14:08:55.004Z,40.70
2018-06-08T14:11:24.344Z,40.70
2018-06-08T14:13:53.742Z,40.70
2018-06-08T14:16:23.113Z,40.80
2018-06-08T14:18:52.435Z,41.30
2018-06-08T14:21:21.753Z,41.50
2018-06-08T14:23:51.027Z,41.30
2018-06-08T14:26:20.308Z,41.00
2018-06-08T14:28:49.536Z,40.80
2018-06-08T14:31:18.827Z,40.70
2018-06-08T14:33:48.229Z,40.70
2018-06-08T14:36:17.593Z,40.90
2018-06-08T14:38:46.990Z,41.00
2018-06-08T14:41:16.393Z,40.90
2018-06-08T14:43:45.698Z,40.90
2018-06-08T14:46:14.962Z,40.60
2018-06-08T14:48:44.410Z,40.40
2018-06-08T14:51:13.787Z,40.20
2018-06-08T14:53:43.386Z,39.90
2018-06-08T14:58:41.784Z,38.50
2018-06-08T15:01:11.347Z,37.90
2018-06-08T15:03:40.781Z,37.40
2018-06-08T15:06:09.997Z,37.10
2018-06-08T15:08:40.675Z,36.90
2018-06-08T15:11:09.991Z,36.70
2018-06-08T15:13:40.465Z,36.80
2018-06-08T15:18:43.111Z,36.60
2018-06-08T15:21:26.589Z,36.20
2018-06-08T15:26:26.430Z,35.40
2018-06-08T15:28:57.985Z,35.00
2018-06-08T15:34:02.067Z,34.50
2018-06-08T15:36:32.549Z,34.20
2018-06-08T15:39:10.694Z,34.10
2018-06-08T15:41:40.108Z,34.00
2018-06-08T15:44:09.495Z,33.80
2018-06-08T15:46:39.401Z,33.80
2018-06-08T15:49:09.362Z,33.60
2018-06-08T15:51:38.866Z,33.40
2018-06-08T15:54:08.497Z,33.20
2018-06-08T15:56:39.632Z,33.10
2018-06-08T15:59:11.270Z,33.00
2018-06-08T16:01:42.015Z,32.90
2018-06-08T16:04:11.664Z,32.80
2018-06-08T16:06:41.742Z,32.70
2018-06-08T16:09:11.270Z,32.50
2018-06-08T16:11:40.855Z,32.30
2018-06-08T16:14:10.870Z,32.20
2018-06-08T16:16:41.398Z,31.90
2018-06-08T16:19:12.787Z,31.70
2018-06-08T16:21:43.348Z,31.50
2018-06-08T16:24:13.549Z,31.30
2018-06-08T16:26:43.876Z,31.20
2018-06-08T16:29:13.850Z,31.10
2018-06-08T16:31:43.513Z,31.00
2018-06-08T16:34:13.338Z,30.90
2018-06-08T16:36:42.964Z,30.80
2018-06-08T16:39:13.073Z,30.80
2018-06-08T16:41:43.102Z,30.80
2018-06-08T16:44:13.054Z,30.80
2018-06-08T16:46:42.890Z,30.80
2018-06-08T16:49:13.668Z,30.70
2018-06-08T16:51:43.133Z,30.70
2018-06-08T16:54:13.080Z,30.60
2018-06-08T16:56:42.458Z,30.50
2018-06-08T16:59:11.897Z,30.50
2018-06-08T17:01:41.517Z,30.50
2018-06-08T17:04:11.310Z,30.50
2018-06-08T17:06:41.312Z,30.50
2018-06-08T17:11:39.904Z,30.50
2018-06-08T17:14:09.752Z,30.50
2018-06-08T17:16:39.529Z,30.50
2018-06-08T17:19:08.938Z,30.40
2018-06-08T17:21:38.691Z,30.40
2018-06-08T17:24:08.216Z,30.40
2018-06-08T17:26:37.681Z,30.30
2018-06-08T17:29:07.214Z,30.20
2018-06-08T17:31:36.588Z,30.10
2018-06-08T17:34:06.757Z,30.10
2018-06-08T17:36:36.317Z,30.00
2018-06-08T17:39:07.688Z,29.90
2018-06-08T17:41:37.098Z,29.90
2018-06-08T17:44:06.419Z,29.80
2018-06-08T17:46:35.792Z,29.70
2018-06-08T17:49:05.581Z,29.60
2018-06-08T17:51:35.214Z,29.60
2018-06-08T17:54:04.649Z,29.50
2018-06-08T17:59:03.103Z,29.40
2018-06-08T18:01:32.550Z,29.30
2018-06-08T18:04:02.039Z,29.20
2018-06-08T18:06:32.043Z,29.10
2018-06-08T18:09:01.491Z,29.00
2018-06-08T18:13:59.702Z,28.80
2018-06-08T18:16:29.359Z,28.70
2018-06-08T18:18:58.760Z,28.60
2018-06-08T18:21:28.327Z,28.50
2018-06-08T18:23:57.851Z,28.40
2018-06-08T18:26:27.470Z,28.30
2018-06-08T18:28:56.877Z,28.20
2018-06-08T18:31:26.522Z,28.10
2018-06-08T18:33:56.284Z,28.10
2018-06-08T18:36:26.387Z,28.00
2018-06-08T18:38:56.027Z,27.90
2018-06-08T18:41:25.992Z,27.80
2018-06-08T18:43:55.505Z,27.80
2018-06-08T18:46:24.903Z,27.70
2018-06-08T18:48:54.543Z,27.60
2018-06-08T18:51:24.641Z,27.50
2018-06-08T18:53:54.707Z,27.40
2018-06-08T18:56:24.273Z,27.40
2018-06-08T18:58:54.179Z,27.30
2018-06-08T19:01:24.218Z,27.20
2018-06-08T19:03:54.417Z,27.10
2018-06-08T19:06:24.670Z,27.00
2018-06-08T19:08:54.294Z,26.90
2018-06-08T19:11:23.939Z,26.90
2018-06-08T19:13:53.399Z,26.80
2018-06-08T19:16:23.521Z,26.70
2018-06-08T19:18:53.542Z,26.70
2018-06-08T19:21:23.304Z,26.60
2018-06-08T19:23:52.969Z,26.60
2018-06-08T19:26:24.218Z,26.50
2018-06-08T19:28:54.044Z,26.40
2018-06-08T19:31:24.398Z,26.40
2018-06-08T19:33:53.917Z,26.30
2018-06-08T19:36:24.112Z,26.20
2018-06-08T19:38:53.526Z,26.10
2018-06-08T19:41:23.129Z,26.00
2018-06-08T19:43:52.623Z,25.90
2018-06-08T19:46:22.188Z,25.90
2018-06-08T19:48:51.925Z,25.80
2018-06-08T19:51:21.306Z,25.70
2018-06-08T19:53:50.848Z,25.50
2018-06-08T19:56:20.158Z,25.40
2018-06-08T19:58:49.585Z,25.30
2018-06-08T20:01:18.938Z,25.20
2018-06-08T20:03:48.368Z,25.10
2018-06-08T20:06:17.831Z,25.00
2018-06-08T20:08:47.927Z,24.90
2018-06-08T20:11:18.062Z,24.80
2018-06-08T20:13:48.225Z,24.70
2018-06-08T20:16:18.653Z,24.60
2018-06-08T20:18:48.236Z,24.50
2018-06-08T20:21:17.564Z,24.40
2018-06-08T20:23:46.975Z,24.30
2018-06-08T20:26:16.337Z,24.20
2018-06-08T20:28:46.666Z,24.20
2018-06-08T20:36:14.650Z,24.00
2018-06-08T20:38:44.081Z,23.90
2018-06-08T20:41:13.783Z,23.90
2018-06-08T20:43:43.169Z,23.80
2018-06-08T20:46:12.849Z,23.70
2018-06-08T20:48:42.385Z,23.70
2018-06-08T20:51:11.917Z,23.60
2018-06-08T20:53:41.300Z,23.50
2018-06-08T20:58:39.489Z,23.40
2018-06-08T21:01:08.963Z,23.40
2018-06-08T21:03:54.478Z,23.40
2018-06-08T21:08:56.578Z,23.30
2018-06-08T21:11:25.982Z,23.20
2018-06-08T21:16:24.240Z,23.20
2018-06-08T21:18:53.867Z,23.10
2018-06-08T21:21:23.453Z,23.10
2018-06-08T21:23:52.772Z,23.10
2018-06-08T21:28:51.027Z,23.00
2018-06-08T21:31:20.444Z,22.90
2018-06-08T21:33:50.595Z,22.90
2018-06-08T21:36:20.072Z,22.80
2018-06-08T21:38:50.058Z,22.80
2018-06-08T21:41:19.382Z,22.70
2018-06-08T21:43:48.728Z,22.60
2018-06-08T21:46:18.145Z,22.50
2018-06-08T21:48:47.519Z,22.40
2018-06-08T21:51:16.821Z,22.30
2018-06-08T21:53:46.083Z,22.30
2018-06-08T21:56:15.389Z,22.20
2018-06-08T21:58:44.891Z,22.10
2018-06-08T22:01:14.259Z,22.00
2018-06-08T22:03:43.780Z,21.90
2018-06-08T22:06:13.162Z,21.80
2018-06-08T22:08:42.485Z,21.80
2018-06-08T22:11:11.797Z,21.70
2018-06-08T22:13:41.195Z,21.70
2018-06-08T22:16:10.506Z,21.60
2018-06-08T22:18:40.287Z,21.50
2018-06-08T22:21:09.714Z,21.50
2018-06-08T22:23:39.236Z,21.40
2018-06-08T22:26:08.834Z,21.30
2018-06-08T22:28:38.518Z,21.30
2018-06-08T22:31:07.832Z,21.20
2018-06-08T22:33:37.192Z,21.20
2018-06-08T22:36:06.466Z,21.10
2018-06-08T22:38:35.880Z,21.10
2018-06-08T22:41:05.400Z,21.10
2018-06-08T22:43:34.753Z,21.00
2018-06-08T22:46:04.222Z,20.90
2018-06-08T22:48:33.503Z,20.90
2018-06-08T22:51:02.867Z,20.90
2018-06-08T22:53:32.151Z,20.80
2018-06-08T22:56:01.799Z,20.80
2018-06-08T22:58:31.118Z,20.70
2018-06-08T23:01:00.459Z,20.70
2018-06-08T23:03:29.774Z,20.60
2018-06-08T23:05:59.576Z,20.50
2018-06-08T23:08:28.875Z,20.40
2018-06-08T23:10:58.194Z,20.40
2018-06-08T23:13:27.486Z,20.30
2018-06-08T23:15:56.959Z,20.30
2018-06-08T23:18:26.526Z,20.20
2018-06-08T23:20:56.250Z,20.20
2018-06-08T23:23:25.802Z,20.10
2018-06-08T23:25:55.208Z,20.00
2018-06-08T23:28:24.700Z,20.00
2018-06-08T23:30:54.212Z,19.90
2018-06-08T23:35:52.547Z,19.90
2018-06-08T23:38:21.898Z,19.90
2018-06-08T23:40:51.250Z,19.80
2018-06-08T23:43:20.544Z,19.70
2018-06-08T23:45:49.851Z,19.70
2018-06-08T23:48:19.192Z,19.60
2018-06-08T23:50:48.497Z,19.50
2018-06-08T23:53:17.882Z,19.50
2018-06-08T23:55:47.159Z,19.50
2018-06-08T23:58:16.484Z,19.40
